sensor_id;sensor_type;location;lat;lon;timestamp;pressure;altitude;pressure_sealevel;temperature;humidity
12073;BME280;6098;49.004;8.372;2022-08-01T00:04:31;100330.27;;;25.08;44.17
12073;BME280;6098;49.004;8.372;2022-08-01T00:19:24;100334.35;;;24.89;44.77
12073;BME280;6098;49.004;8.372;2022-08-01T00:34:15;100334.45;;;24.75;45.38
12073;BME280;6098;49.004;8.372;2022-08-01T00:49:10;100333.98;;;24.47;46.24
12073;BME280;6098;49.004;8.372;2022-08-01T01:04:03;100342.94;;;24.30;47.23
12073;BME280;6098;49.004;8.372;2022-08-01T01:18:55;100353.77;;;24.11;47.90
12073;BME280;6098;49.004;8.372;2022-08-01T01:33:47;100346.43;;;24.08;48.39
12073;BME280;6098;49.004;8.372;2022-08-01T01:48:38;100354.75;;;23.96;49.08
12073;BME280;6098;49.004;8.372;2022-08-01T02:03:31;100366.59;;;23.90;49.71
12073;BME280;6098;49.004;8.372;2022-08-01T02:18:22;100358.83;;;23.77;50.50
12073;BME280;6098;49.004;8.372;2022-08-01T02:33:20;100358.19;;;23.69;51.09
12073;BME280;6098;49.004;8.372;2022-08-01T02:48:15;100351.36;;;23.51;51.87
12073;BME280;6098;49.004;8.372;2022-08-01T03:03:06;100355.86;;;23.37;52.55
12073;BME280;6098;49.004;8.372;2022-08-01T03:17:58;100350.38;;;23.22;53.24
12073;BME280;6098;49.004;8.372;2022-08-01T03:32:49;100354.36;;;23.14;53.79
12073;BME280;6098;49.004;8.372;2022-08-01T03:47:43;100362.22;;;22.97;54.75
12073;BME280;6098;49.004;8.372;2022-08-01T04:02:34;100366.59;;;22.84;55.43
12073;BME280;6098;49.004;8.372;2022-08-01T04:17:25;100359.70;;;22.70;56.09
12073;BME280;6098;49.004;8.372;2022-08-01T04:32:17;100373.41;;;22.68;56.50
12073;BME280;6098;49.004;8.372;2022-08-01T04:47:09;100388.12;;;22.64;56.83
12073;BME280;6098;49.004;8.372;2022-08-01T05:02:01;100386.83;;;22.64;57.09
12073;BME280;6098;49.004;8.372;2022-08-01T05:16:55;100385.41;;;22.80;57.41
12073;BME280;6098;49.004;8.372;2022-08-01T05:31:46;100384.10;;;22.89;57.53
12073;BME280;6098;49.004;8.372;2022-08-01T05:46:38;100398.09;;;22.99;57.81
12073;BME280;6098;49.004;8.372;2022-08-01T06:01:30;100386.11;;;23.21;58.17
12073;BME280;6098;49.004;8.372;2022-08-01T06:16:24;100402.56;;;23.44;58.27
12073;BME280;6098;49.004;8.372;2022-08-01T06:31:17;100402.70;;;23.80;57.96
12073;BME280;6098;49.004;8.372;2022-08-01T06:46:10;100404.08;;;23.95;58.13
12073;BME280;6098;49.004;8.372;2022-08-01T07:01:05;100422.59;;;24.18;57.73
12073;BME280;6098;49.004;8.372;2022-08-01T07:16:01;100419.91;;;24.51;56.95
12073;BME280;6098;49.004;8.372;2022-08-01T07:30:53;100417.53;;;24.85;56.08
12073;BME280;6098;49.004;8.372;2022-08-01T07:45:51;100401.93;;;24.96;56.05
12073;BME280;6098;49.004;8.372;2022-08-01T08:00:48;100399.50;;;25.34;53.90
12073;BME280;6098;49.004;8.372;2022-08-01T08:15:39;100396.34;;;25.70;52.86
12073;BME280;6098;49.004;8.372;2022-08-01T08:30:33;100394.11;;;25.95;52.42
12073;BME280;6098;49.004;8.372;2022-08-01T08:45:26;100392.30;;;26.04;52.37
12073;BME280;6098;49.004;8.372;2022-08-01T09:00:17;100386.67;;;26.28;51.27
12073;BME280;6098;49.004;8.372;2022-08-01T09:15:09;100387.00;;;26.51;50.72
12073;BME280;6098;49.004;8.372;2022-08-01T09:45:03;100395.59;;;26.84;50.44
12073;BME280;6098;49.004;8.372;2022-08-01T09:59:56;100391.02;;;26.85;49.86
12073;BME280;6098;49.004;8.372;2022-08-01T10:14:50;100387.94;;;26.97;50.51
12073;BME280;6098;49.004;8.372;2022-08-01T10:29:47;100377.19;;;27.08;49.79
12073;BME280;6098;49.004;8.372;2022-08-01T10:44:42;100367.70;;;27.45;49.59
12073;BME280;6098;49.004;8.372;2022-08-01T10:59:35;100364.25;;;27.92;47.08
12073;BME280;6098;49.004;8.372;2022-08-01T11:14:30;100364.70;;;27.80;46.94
12073;BME280;6098;49.004;8.372;2022-08-01T11:29:23;100352.09;;;27.91;46.72
12073;BME280;6098;49.004;8.372;2022-08-01T11:44:19;100342.81;;;28.05;46.36
12073;BME280;6098;49.004;8.372;2022-08-01T11:59:11;100330.67;;;28.36;45.76
12073;BME280;6098;49.004;8.372;2022-08-01T12:14:04;100311.86;;;28.84;44.23
12073;BME280;6098;49.004;8.372;2022-08-01T12:28:57;100300.06;;;28.88;43.99
12073;BME280;6098;49.004;8.372;2022-08-01T12:43:50;100286.99;;;29.37;42.14
12073;BME280;6098;49.004;8.372;2022-08-01T12:58:44;100294.17;;;29.83;40.48
12073;BME280;6098;49.004;8.372;2022-08-01T13:28:30;100287.70;;;29.64;39.99
12073;BME280;6098;49.004;8.372;2022-08-01T13:43:22;100277.77;;;29.76;39.23
12073;BME280;6098;49.004;8.372;2022-08-01T13:58:17;100281.11;;;29.70;38.79
12073;BME280;6098;49.004;8.372;2022-08-01T14:13:09;100263.92;;;29.62;39.77
12073;BME280;6098;49.004;8.372;2022-08-01T14:28:01;100267.26;;;30.09;38.16
12073;BME280;6098;49.004;8.372;2022-08-01T14:42:55;100268.58;;;30.64;38.07
12073;BME280;6098;49.004;8.372;2022-08-01T14:57:48;100271.39;;;30.38;38.41
12073;BME280;6098;49.004;8.372;2022-08-01T15:12:38;100268.67;;;29.79;39.74
12073;BME280;6098;49.004;8.372;2022-08-01T15:27:31;100274.27;;;29.48;40.61
12073;BME280;6098;49.004;8.372;2022-08-01T15:42:23;100273.66;;;29.30;41.08
12073;BME280;6098;49.004;8.372;2022-08-01T15:57:16;100281.05;;;28.91;41.71
12073;BME280;6098;49.004;8.372;2022-08-01T16:12:08;100277.60;;;28.62;42.58
12073;BME280;6098;49.004;8.372;2022-08-01T16:27:01;100289.00;;;28.70;42.39
12073;BME280;6098;49.004;8.372;2022-08-01T16:41:53;100283.32;;;28.60;42.54
12073;BME280;6098;49.004;8.372;2022-08-01T16:56:44;100289.22;;;28.44;42.15
12073;BME280;6098;49.004;8.372;2022-08-01T17:11:37;100289.27;;;28.36;42.37
12073;BME280;6098;49.004;8.372;2022-08-01T17:26:30;100292.50;;;28.32;43.38
12073;BME280;6098;49.004;8.372;2022-08-01T17:41:23;100294.25;;;28.09;42.19
12073;BME280;6098;49.004;8.372;2022-08-01T17:56:15;100309.75;;;27.92;42.23
12073;BME280;6098;49.004;8.372;2022-08-01T18:11:09;100322.53;;;27.71;42.38
12073;BME280;6098;49.004;8.372;2022-08-01T18:26:02;100323.72;;;27.53;42.96
12073;BME280;6098;49.004;8.372;2022-08-01T18:40:53;100318.86;;;27.44;42.78
12073;BME280;6098;49.004;8.372;2022-08-01T18:55:46;100336.75;;;27.25;43.39
12073;BME280;6098;49.004;8.372;2022-08-01T19:10:40;100352.84;;;27.03;43.77
12073;BME280;6098;49.004;8.372;2022-08-01T19:25:34;100372.63;;;26.92;44.71
12073;BME280;6098;49.004;8.372;2022-08-01T19:40:28;100387.71;;;26.82;45.41
12073;BME280;6098;49.004;8.372;2022-08-01T19:55:20;100408.56;;;26.65;46.38
12073;BME280;6098;49.004;8.372;2022-08-01T20:10:11;100409.45;;;26.44;46.63
12073;BME280;6098;49.004;8.372;2022-08-01T20:25:04;100423.30;;;26.33;46.93
12073;BME280;6098;49.004;8.372;2022-08-01T20:39:56;100421.01;;;26.20;47.25
12073;BME280;6098;49.004;8.372;2022-08-01T20:54:48;100428.55;;;26.09;47.54
12073;BME280;6098;49.004;8.372;2022-08-01T21:09:41;100439.23;;;26.01;47.88
12073;BME280;6098;49.004;8.372;2022-08-01T21:39:24;100457.66;;;25.59;49.44
12073;BME280;6098;49.004;8.372;2022-08-01T21:54:27;100459.30;;;25.47;50.10
12073;BME280;6098;49.004;8.372;2022-08-01T22:09:21;100481.13;;;25.41;50.69
12073;BME280;6098;49.004;8.372;2022-08-01T22:24:13;100481.55;;;25.18;51.62
12073;BME280;6098;49.004;8.372;2022-08-01T22:39:04;100484.50;;;24.98;52.22
12073;BME280;6098;49.004;8.372;2022-08-01T22:54:05;100484.84;;;24.80;53.09
12073;BME280;6098;49.004;8.372;2022-08-01T23:09:00;100483.14;;;24.55;53.62
12073;BME280;6098;49.004;8.372;2022-08-01T23:23:50;100492.59;;;24.28;54.45
12073;BME280;6098;49.004;8.372;2022-08-01T23:38:43;100494.45;;;24.13;54.91
12073;BME280;6098;49.004;8.372;2022-08-01T23:53:32;100470.97;;;23.93;55.56
